KMWC

Lawrence J Timmerman Airport

Milwaukee, Wisconsin, USA
METAR KMWC 170755Z AUTO 07005KT 10SM OVC010 00/M02 A3012 RMK AO2
Observed Flight Rules
Dec-17 @ 07:55 UTC (23 minutes ago) Marginal Visual Flight Rules
Wind Visibility Clouds
70° at 5 knots 10 miles
  • Overcast at 1,000' AGL
Temperatures Readings
Current 0°C / 32°F
Dewpoint -2°C / 28°F
Humidity 87%
Altimeter 30.12" Hg
Pressure 1020 hPa
Elevation 227
METAR KMWC 170755Z AUTO 07005KT 10SM OVC010 00/M02 A3012 RMK AO2
Observed Flight Rules
Dec-17 @ 07:55 UTC
(23 minutes ago)
MVFR
Wind Visibility
70° at 5 knots 10 miles
Clouds
  • Overcast at 1,000' AGL
Temperature Dewpoint
0°C / 32°F -2°C / 28°F
Humidity Altimeter Pressure
87% 30.12" Hg 1020 hPa